sensor_id;sensor_type;location;lat;lon;timestamp;P1;durP1;ratioP1;P2;durP2;ratioP2
19854;SDS011;10088;47.946;2.532;2023-07-16T00:01:51;8.93;;;2.27;;
19854;SDS011;10088;47.946;2.532;2023-07-16T00:04:17;9.40;;;2.30;;
19854;SDS011;10088;47.946;2.532;2023-07-16T00:06:42;7.57;;;1.97;;
19854;SDS011;10088;47.946;2.532;2023-07-16T00:09:07;4.83;;;1.77;;
19854;SDS011;10088;47.946;2.532;2023-07-16T00:11:32;8.40;;;2.40;;
19854;SDS011;10088;47.946;2.532;2023-07-16T00:13:58;8.13;;;2.13;;
19854;SDS011;10088;47.946;2.532;2023-07-16T00:16:23;5.97;;;2.03;;
19854;SDS011;10088;47.946;2.532;2023-07-16T00:18:49;6.77;;;2.33;;
19854;SDS011;10088;47.946;2.532;2023-07-16T00:21:14;8.70;;;2.13;;
19854;SDS011;10088;47.946;2.532;2023-07-16T00:23:39;7.23;;;2.10;;
19854;SDS011;10088;47.946;2.532;2023-07-16T00:26:04;7.03;;;2.60;;
19854;SDS011;10088;47.946;2.532;2023-07-16T00:28:30;4.60;;;1.53;;
19854;SDS011;10088;47.946;2.532;2023-07-16T00:30:55;4.67;;;2.07;;
19854;SDS011;10088;47.946;2.532;2023-07-16T00:33:20;7.07;;;2.10;;
19854;SDS011;10088;47.946;2.532;2023-07-16T00:35:49;4.67;;;2.03;;
19854;SDS011;10088;47.946;2.532;2023-07-16T00:38:14;7.73;;;2.30;;
19854;SDS011;10088;47.946;2.532;2023-07-16T00:40:40;8.87;;;2.53;;
19854;SDS011;10088;47.946;2.532;2023-07-16T00:43:05;7.07;;;2.50;;
19854;SDS011;10088;47.946;2.532;2023-07-16T00:45:30;5.33;;;2.00;;
19854;SDS011;10088;47.946;2.532;2023-07-16T00:47:55;7.70;;;2.03;;
19854;SDS011;10088;47.946;2.532;2023-07-16T00:50:21;7.23;;;2.20;;
19854;SDS011;10088;47.946;2.532;2023-07-16T00:52:46;4.60;;;2.10;;
19854;SDS011;10088;47.946;2.532;2023-07-16T00:55:12;7.13;;;2.37;;
19854;SDS011;10088;47.946;2.532;2023-07-16T00:57:38;5.50;;;1.67;;
19854;SDS011;10088;47.946;2.532;2023-07-16T01:00:03;5.90;;;2.27;;
19854;SDS011;10088;47.946;2.532;2023-07-16T01:02:28;9.33;;;2.50;;
19854;SDS011;10088;47.946;2.532;2023-07-16T01:04:54;8.23;;;1.87;;
19854;SDS011;10088;47.946;2.532;2023-07-16T01:07:19;6.30;;;2.20;;
19854;SDS011;10088;47.946;2.532;2023-07-16T01:09:47;9.13;;;2.43;;
19854;SDS011;10088;47.946;2.532;2023-07-16T01:12:12;8.50;;;2.43;;
19854;SDS011;10088;47.946;2.532;2023-07-16T01:14:38;6.77;;;2.53;;
19854;SDS011;10088;47.946;2.532;2023-07-16T01:17:04;7.23;;;2.60;;
19854;SDS011;10088;47.946;2.532;2023-07-16T01:19:31;5.17;;;2.20;;
19854;SDS011;10088;47.946;2.532;2023-07-16T01:30:04;11.70;;;3.10;;
19854;SDS011;10088;47.946;2.532;2023-07-16T01:32:32;8.03;;;2.60;;
19854;SDS011;10088;47.946;2.532;2023-07-16T01:34:58;8.03;;;2.67;;
19854;SDS011;10088;47.946;2.532;2023-07-16T01:37:24;10.47;;;2.47;;
19854;SDS011;10088;47.946;2.532;2023-07-16T01:39:49;7.67;;;2.10;;
19854;SDS011;10088;47.946;2.532;2023-07-16T01:42:14;7.53;;;2.80;;
19854;SDS011;10088;47.946;2.532;2023-07-16T01:44:39;6.37;;;2.40;;
19854;SDS011;10088;47.946;2.532;2023-07-16T01:47:11;7.00;;;2.23;;
19854;SDS011;10088;47.946;2.532;2023-07-16T01:49:38;9.73;;;2.47;;
19854;SDS011;10088;47.946;2.532;2023-07-16T01:52:04;8.87;;;2.80;;
19854;SDS011;10088;47.946;2.532;2023-07-16T01:54:30;10.07;;;2.50;;
19854;SDS011;10088;47.946;2.532;2023-07-16T01:56:55;6.73;;;2.27;;
19854;SDS011;10088;47.946;2.532;2023-07-16T01:59:20;6.30;;;2.17;;
19854;SDS011;10088;47.946;2.532;2023-07-16T02:01:45;10.27;;;2.63;;
19854;SDS011;10088;47.946;2.532;2023-07-16T02:04:11;7.60;;;1.93;;
19854;SDS011;10088;47.946;2.532;2023-07-16T02:06:36;9.57;;;2.37;;
19854;SDS011;10088;47.946;2.532;2023-07-16T02:09:01;9.53;;;2.43;;
19854;SDS011;10088;47.946;2.532;2023-07-16T02:11:26;8.83;;;2.57;;
19854;SDS011;10088;47.946;2.532;2023-07-16T02:13:52;4.13;;;2.20;;
19854;SDS011;10088;47.946;2.532;2023-07-16T02:16:17;8.30;;;2.47;;
19854;SDS011;10088;47.946;2.532;2023-07-16T02:18:42;8.00;;;2.50;;
19854;SDS011;10088;47.946;2.532;2023-07-16T02:21:07;10.70;;;2.53;;
19854;SDS011;10088;47.946;2.532;2023-07-16T02:23:33;7.07;;;2.70;;
19854;SDS011;10088;47.946;2.532;2023-07-16T02:25:58;10.40;;;3.20;;
19854;SDS011;10088;47.946;2.532;2023-07-16T02:28:23;6.07;;;2.33;;
19854;SDS011;10088;47.946;2.532;2023-07-16T02:30:49;8.20;;;2.70;;
19854;SDS011;10088;47.946;2.532;2023-07-16T02:33:14;8.33;;;2.80;;
19854;SDS011;10088;47.946;2.532;2023-07-16T02:35:40;7.10;;;2.70;;
19854;SDS011;10088;47.946;2.532;2023-07-16T02:38:05;11.70;;;3.87;;
19854;SDS011;10088;47.946;2.532;2023-07-16T02:40:30;7.93;;;2.50;;
19854;SDS011;10088;47.946;2.532;2023-07-16T02:42:55;13.00;;;2.80;;
19854;SDS011;10088;47.946;2.532;2023-07-16T02:45:21;11.47;;;2.77;;
19854;SDS011;10088;47.946;2.532;2023-07-16T02:47:46;8.80;;;3.10;;
19854;SDS011;10088;47.946;2.532;2023-07-16T02:50:11;7.83;;;2.73;;
19854;SDS011;10088;47.946;2.532;2023-07-16T02:52:36;9.43;;;2.73;;
19854;SDS011;10088;47.946;2.532;2023-07-16T02:55:02;10.70;;;2.90;;
19854;SDS011;10088;47.946;2.532;2023-07-16T02:57:27;8.43;;;2.90;;
19854;SDS011;10088;47.946;2.532;2023-07-16T02:59:53;8.13;;;2.60;;
19854;SDS011;10088;47.946;2.532;2023-07-16T03:02:18;9.00;;;2.47;;
19854;SDS011;10088;47.946;2.532;2023-07-16T03:04:43;8.93;;;3.07;;
19854;SDS011;10088;47.946;2.532;2023-07-16T03:07:08;12.80;;;3.17;;
19854;SDS011;10088;47.946;2.532;2023-07-16T03:09:34;10.27;;;2.83;;
19854;SDS011;10088;47.946;2.532;2023-07-16T03:11:59;10.10;;;3.30;;
19854;SDS011;10088;47.946;2.532;2023-07-16T03:14:24;10.73;;;3.90;;
19854;SDS011;10088;47.946;2.532;2023-07-16T03:16:50;10.40;;;2.80;;
19854;SDS011;10088;47.946;2.532;2023-07-16T03:19:15;16.47;;;3.40;;
19854;SDS011;10088;47.946;2.532;2023-07-16T03:21:40;10.27;;;2.80;;
19854;SDS011;10088;47.946;2.532;2023-07-16T03:24:05;7.37;;;2.53;;
19854;SDS011;10088;47.946;2.532;2023-07-16T03:26:31;9.43;;;2.93;;
19854;SDS011;10088;47.946;2.532;2023-07-16T03:28:56;10.83;;;2.67;;
19854;SDS011;10088;47.946;2.532;2023-07-16T03:31:21;10.13;;;2.93;;
19854;SDS011;10088;47.946;2.532;2023-07-16T03:33:46;10.10;;;2.30;;
19854;SDS011;10088;47.946;2.532;2023-07-16T03:36:12;9.63;;;3.13;;
19854;SDS011;10088;47.946;2.532;2023-07-16T03:38:37;11.70;;;2.57;;
19854;SDS011;10088;47.946;2.532;2023-07-16T03:41:02;9.80;;;3.10;;
19854;SDS011;10088;47.946;2.532;2023-07-16T03:43:27;12.37;;;2.80;;
19854;SDS011;10088;47.946;2.532;2023-07-16T03:45:53;9.50;;;3.10;;
19854;SDS011;10088;47.946;2.532;2023-07-16T03:48:18;11.83;;;2.90;;
19854;SDS011;10088;47.946;2.532;2023-07-16T03:50:43;8.57;;;2.93;;
19854;SDS011;10088;47.946;2.532;2023-07-16T03:53:08;10.30;;;3.00;;
19854;SDS011;10088;47.946;2.532;2023-07-16T03:55:34;12.03;;;2.63;;
19854;SDS011;10088;47.946;2.532;2023-07-16T03:57:59;7.30;;;2.50;;
19854;SDS011;10088;47.946;2.532;2023-07-16T04:00:25;9.33;;;3.37;;
19854;SDS011;10088;47.946;2.532;2023-07-16T04:02:50;9.10;;;3.13;;
19854;SDS011;10088;47.946;2.532;2023-07-16T04:05:15;12.27;;;2.90;;
19854;SDS011;10088;47.946;2.532;2023-07-16T04:07:41;6.33;;;2.90;;
19854;SDS011;10088;47.946;2.532;2023-07-16T04:10:06;7.73;;;3.03;;
19854;SDS011;10088;47.946;2.532;2023-07-16T04:12:31;8.10;;;3.07;;
19854;SDS011;10088;47.946;2.532;2023-07-16T04:14:57;9.33;;;3.00;;
19854;SDS011;10088;47.946;2.532;2023-07-16T04:17:23;13.53;;;2.90;;
19854;SDS011;10088;47.946;2.532;2023-07-16T04:19:48;11.70;;;3.40;;
19854;SDS011;10088;47.946;2.532;2023-07-16T04:22:13;9.43;;;2.43;;
19854;SDS011;10088;47.946;2.532;2023-07-16T04:24:39;9.07;;;2.83;;
19854;SDS011;10088;47.946;2.532;2023-07-16T04:27:04;8.80;;;3.23;;
19854;SDS011;10088;47.946;2.532;2023-07-16T04:29:30;13.20;;;3.30;;
19854;SDS011;10088;47.946;2.532;2023-07-16T04:31:55;6.80;;;2.50;;
19854;SDS011;10088;47.946;2.532;2023-07-16T04:34:20;15.93;;;3.03;;
19854;SDS011;10088;47.946;2.532;2023-07-16T04:36:45;9.13;;;2.87;;
19854;SDS011;10088;47.946;2.532;2023-07-16T04:39:11;9.33;;;2.60;;
19854;SDS011;10088;47.946;2.532;2023-07-16T04:41:36;10.70;;;2.87;;
19854;SDS011;10088;47.946;2.532;2023-07-16T04:44:01;11.37;;;3.17;;
19854;SDS011;10088;47.946;2.532;2023-07-16T04:46:27;8.57;;;3.20;;
19854;SDS011;10088;47.946;2.532;2023-07-16T04:48:52;8.10;;;3.10;;
19854;SDS011;10088;47.946;2.532;2023-07-16T04:51:18;9.33;;;2.67;;
19854;SDS011;10088;47.946;2.532;2023-07-16T04:53:44;10.60;;;3.20;;
19854;SDS011;10088;47.946;2.532;2023-07-16T04:56:12;8.97;;;2.70;;
19854;SDS011;10088;47.946;2.532;2023-07-16T04:58:38;11.50;;;2.80;;
19854;SDS011;10088;47.946;2.532;2023-07-16T05:01:03;7.97;;;2.93;;
19854;SDS011;10088;47.946;2.532;2023-07-16T05:03:28;11.07;;;3.00;;
19854;SDS011;10088;47.946;2.532;2023-07-16T05:05:53;10.23;;;3.53;;
19854;SDS011;10088;47.946;2.532;2023-07-16T05:08:19;11.83;;;3.13;;
19854;SDS011;10088;47.946;2.532;2023-07-16T05:10:44;10.33;;;2.93;;
19854;SDS011;10088;47.946;2.532;2023-07-16T05:13:10;8.43;;;3.27;;
19854;SDS011;10088;47.946;2.532;2023-07-16T05:15:35;8.63;;;2.90;;
19854;SDS011;10088;47.946;2.532;2023-07-16T05:18:02;11.33;;;2.63;;
19854;SDS011;10088;47.946;2.532;2023-07-16T05:20:27;7.80;;;2.47;;
19854;SDS011;10088;47.946;2.532;2023-07-16T05:22:52;6.97;;;2.37;;
19854;SDS011;10088;47.946;2.532;2023-07-16T05:25:17;9.57;;;2.67;;
19854;SDS011;10088;47.946;2.532;2023-07-16T05:27:43;6.33;;;2.37;;
19854;SDS011;10088;47.946;2.532;2023-07-16T05:30:08;6.80;;;3.03;;
19854;SDS011;10088;47.946;2.532;2023-07-16T05:32:34;6.77;;;2.90;;
19854;SDS011;10088;47.946;2.532;2023-07-16T05:35:00;9.40;;;2.73;;
19854;SDS011;10088;47.946;2.532;2023-07-16T05:37:25;9.90;;;2.90;;
19854;SDS011;10088;47.946;2.532;2023-07-16T05:39:51;8.60;;;3.00;;
19854;SDS011;10088;47.946;2.532;2023-07-16T05:42:16;6.30;;;3.53;;
19854;SDS011;10088;47.946;2.532;2023-07-16T05:44:41;11.47;;;2.80;;
19854;SDS011;10088;47.946;2.532;2023-07-16T05:47:07;12.53;;;2.60;;
19854;SDS011;10088;47.946;2.532;2023-07-16T05:49:34;7.20;;;3.10;;
19854;SDS011;10088;47.946;2.532;2023-07-16T05:51:59;7.57;;;2.57;;
19854;SDS011;10088;47.946;2.532;2023-07-16T05:54:24;6.83;;;2.70;;
19854;SDS011;10088;47.946;2.532;2023-07-16T05:56:49;7.90;;;2.20;;
19854;SDS011;10088;47.946;2.532;2023-07-16T05:59:15;8.70;;;2.70;;
19854;SDS011;10088;47.946;2.532;2023-07-16T06:01:40;9.03;;;2.80;;
19854;SDS011;10088;47.946;2.532;2023-07-16T06:04:05;8.60;;;3.13;;
19854;SDS011;10088;47.946;2.532;2023-07-16T06:06:30;8.43;;;2.87;;
19854;SDS011;10088;47.946;2.532;2023-07-16T06:08:56;6.93;;;2.70;;
19854;SDS011;10088;47.946;2.532;2023-07-16T06:11:21;8.27;;;2.83;;
19854;SDS011;10088;47.946;2.532;2023-07-16T06:13:46;8.00;;;2.93;;
19854;SDS011;10088;47.946;2.532;2023-07-16T06:16:12;12.63;;;3.30;;
19854;SDS011;10088;47.946;2.532;2023-07-16T06:18:37;7.27;;;3.27;;
19854;SDS011;10088;47.946;2.532;2023-07-16T06:21:02;8.33;;;3.60;;
19854;SDS011;10088;47.946;2.532;2023-07-16T06:23:28;8.30;;;2.90;;
19854;SDS011;10088;47.946;2.532;2023-07-16T06:25:56;7.80;;;3.27;;
19854;SDS011;10088;47.946;2.532;2023-07-16T06:28:21;8.20;;;3.33;;
19854;SDS011;10088;47.946;2.532;2023-07-16T06:30:47;10.33;;;3.93;;
19854;SDS011;10088;47.946;2.532;2023-07-16T06:33:12;9.27;;;3.63;;
19854;SDS011;10088;47.946;2.532;2023-07-16T06:35:37;10.03;;;4.33;;
19854;SDS011;10088;47.946;2.532;2023-07-16T06:38:03;7.97;;;3.60;;
19854;SDS011;10088;47.946;2.532;2023-07-16T06:40:29;9.00;;;4.20;;
19854;SDS011;10088;47.946;2.532;2023-07-16T06:42:55;11.70;;;4.13;;
19854;SDS011;10088;47.946;2.532;2023-07-16T06:45:20;10.33;;;4.07;;
19854;SDS011;10088;47.946;2.532;2023-07-16T06:47:45;8.00;;;4.10;;
19854;SDS011;10088;47.946;2.532;2023-07-16T06:50:11;11.93;;;4.20;;
19854;SDS011;10088;47.946;2.532;2023-07-16T06:52:36;10.67;;;4.07;;
19854;SDS011;10088;47.946;2.532;2023-07-16T06:55:01;8.80;;;4.50;;
19854;SDS011;10088;47.946;2.532;2023-07-16T06:57:26;10.43;;;4.23;;
19854;SDS011;10088;47.946;2.532;2023-07-16T06:59:52;12.73;;;4.80;;
19854;SDS011;10088;47.946;2.532;2023-07-16T07:02:17;9.50;;;4.00;;
19854;SDS011;10088;47.946;2.532;2023-07-16T07:04:43;9.13;;;4.53;;
19854;SDS011;10088;47.946;2.532;2023-07-16T07:07:08;13.90;;;4.60;;
19854;SDS011;10088;47.946;2.532;2023-07-16T07:09:33;9.97;;;4.17;;
19854;SDS011;10088;47.946;2.532;2023-07-16T07:11:59;10.37;;;4.00;;
19854;SDS011;10088;47.946;2.532;2023-07-16T07:14:24;7.57;;;3.93;;
19854;SDS011;10088;47.946;2.532;2023-07-16T07:16:49;9.67;;;4.13;;
19854;SDS011;10088;47.946;2.532;2023-07-16T07:19:15;10.80;;;4.47;;
19854;SDS011;10088;47.946;2.532;2023-07-16T07:21:40;9.87;;;5.00;;
19854;SDS011;10088;47.946;2.532;2023-07-16T07:24:05;14.07;;;5.70;;
19854;SDS011;10088;47.946;2.532;2023-07-16T07:26:30;12.10;;;4.40;;
19854;SDS011;10088;47.946;2.532;2023-07-16T07:28:55;13.83;;;4.63;;
19854;SDS011;10088;47.946;2.532;2023-07-16T07:31:21;5.97;;;3.47;;
19854;SDS011;10088;47.946;2.532;2023-07-16T07:33:46;9.17;;;4.50;;
19854;SDS011;10088;47.946;2.532;2023-07-16T07:36:11;9.17;;;4.70;;
19854;SDS011;10088;47.946;2.532;2023-07-16T07:38:36;7.70;;;3.50;;
19854;SDS011;10088;47.946;2.532;2023-07-16T07:41:02;13.37;;;4.47;;
19854;SDS011;10088;47.946;2.532;2023-07-16T07:43:29;9.07;;;4.90;;
19854;SDS011;10088;47.946;2.532;2023-07-16T07:45:54;12.97;;;4.20;;
19854;SDS011;10088;47.946;2.532;2023-07-16T07:48:20;9.47;;;4.53;;
19854;SDS011;10088;47.946;2.532;2023-07-16T07:50:46;7.10;;;3.80;;
19854;SDS011;10088;47.946;2.532;2023-07-16T07:53:11;10.67;;;4.30;;
19854;SDS011;10088;47.946;2.532;2023-07-16T07:55:37;11.27;;;4.43;;
19854;SDS011;10088;47.946;2.532;2023-07-16T07:58:02;7.43;;;4.73;;
19854;SDS011;10088;47.946;2.532;2023-07-16T08:00:27;8.73;;;3.90;;
19854;SDS011;10088;47.946;2.532;2023-07-16T08:02:53;7.10;;;4.07;;
19854;SDS011;10088;47.946;2.532;2023-07-16T08:05:18;10.50;;;4.23;;
19854;SDS011;10088;47.946;2.532;2023-07-16T08:07:43;9.87;;;3.60;;
19854;SDS011;10088;47.946;2.532;2023-07-16T08:10:09;8.60;;;3.57;;
19854;SDS011;10088;47.946;2.532;2023-07-16T08:12:34;9.03;;;3.83;;
19854;SDS011;10088;47.946;2.532;2023-07-16T08:14:59;9.03;;;3.90;;
19854;SDS011;10088;47.946;2.532;2023-07-16T08:17:25;5.83;;;3.27;;
19854;SDS011;10088;47.946;2.532;2023-07-16T08:19:50;8.87;;;3.83;;
19854;SDS011;10088;47.946;2.532;2023-07-16T08:22:15;7.47;;;3.80;;
19854;SDS011;10088;47.946;2.532;2023-07-16T08:24:40;8.27;;;3.60;;
19854;SDS011;10088;47.946;2.532;2023-07-16T08:27:06;7.83;;;3.33;;
19854;SDS011;10088;47.946;2.532;2023-07-16T08:29:31;11.00;;;4.43;;
19854;SDS011;10088;47.946;2.532;2023-07-16T08:31:56;6.70;;;3.03;;
19854;SDS011;10088;47.946;2.532;2023-07-16T08:34:21;10.20;;;3.60;;
19854;SDS011;10088;47.946;2.532;2023-07-16T08:36:47;10.57;;;3.47;;
19854;SDS011;10088;47.946;2.532;2023-07-16T08:39:12;8.77;;;3.17;;
19854;SDS011;10088;47.946;2.532;2023-07-16T08:41:38;8.43;;;3.03;;
19854;SDS011;10088;47.946;2.532;2023-07-16T08:44:03;8.73;;;3.43;;
19854;SDS011;10088;47.946;2.532;2023-07-16T08:46:29;6.70;;;3.17;;
19854;SDS011;10088;47.946;2.532;2023-07-16T08:48:54;7.67;;;3.53;;
19854;SDS011;10088;47.946;2.532;2023-07-16T08:51:20;8.93;;;3.63;;
19854;SDS011;10088;47.946;2.532;2023-07-16T08:53:46;7.57;;;2.90;;
19854;SDS011;10088;47.946;2.532;2023-07-16T08:56:11;7.90;;;3.03;;
19854;SDS011;10088;47.946;2.532;2023-07-16T08:58:37;5.27;;;2.57;;
19854;SDS011;10088;47.946;2.532;2023-07-16T09:01:02;6.00;;;2.53;;
19854;SDS011;10088;47.946;2.532;2023-07-16T09:03:28;4.17;;;2.20;;
19854;SDS011;10088;47.946;2.532;2023-07-16T09:05:54;12.07;;;2.93;;
19854;SDS011;10088;47.946;2.532;2023-07-16T09:08:19;9.03;;;2.60;;
19854;SDS011;10088;47.946;2.532;2023-07-16T09:10:44;6.00;;;2.60;;
19854;SDS011;10088;47.946;2.532;2023-07-16T09:13:18;9.10;;;2.60;;
19854;SDS011;10088;47.946;2.532;2023-07-16T09:15:43;6.73;;;2.70;;
19854;SDS011;10088;47.946;2.532;2023-07-16T09:18:11;9.03;;;2.50;;
19854;SDS011;10088;47.946;2.532;2023-07-16T09:20:39;6.50;;;3.10;;
19854;SDS011;10088;47.946;2.532;2023-07-16T09:23:04;5.33;;;2.50;;
19854;SDS011;10088;47.946;2.532;2023-07-16T09:25:29;6.80;;;2.57;;
19854;SDS011;10088;47.946;2.532;2023-07-16T09:27:55;7.20;;;2.90;;
19854;SDS011;10088;47.946;2.532;2023-07-16T09:30:20;9.27;;;2.90;;
19854;SDS011;10088;47.946;2.532;2023-07-16T09:32:45;5.90;;;2.57;;
19854;SDS011;10088;47.946;2.532;2023-07-16T09:35:13;7.27;;;2.63;;
19854;SDS011;10088;47.946;2.532;2023-07-16T09:37:38;7.10;;;2.93;;
19854;SDS011;10088;47.946;2.532;2023-07-16T09:40:07;8.20;;;3.30;;
19854;SDS011;10088;47.946;2.532;2023-07-16T09:42:39;12.80;;;3.57;;
19854;SDS011;10088;47.946;2.532;2023-07-16T09:45:05;6.03;;;2.80;;
19854;SDS011;10088;47.946;2.532;2023-07-16T09:47:31;6.20;;;2.13;;
19854;SDS011;10088;47.946;2.532;2023-07-16T09:49:56;4.83;;;2.50;;
19854;SDS011;10088;47.946;2.532;2023-07-16T09:52:22;5.80;;;2.70;;
19854;SDS011;10088;47.946;2.532;2023-07-16T09:54:49;7.40;;;2.60;;
19854;SDS011;10088;47.946;2.532;2023-07-16T09:57:15;11.40;;;2.80;;
19854;SDS011;10088;47.946;2.532;2023-07-16T09:59:41;7.40;;;2.63;;
19854;SDS011;10088;47.946;2.532;2023-07-16T10:02:06;6.90;;;2.30;;
19854;SDS011;10088;47.946;2.532;2023-07-16T10:04:39;4.90;;;2.40;;
19854;SDS011;10088;47.946;2.532;2023-07-16T10:07:05;6.53;;;2.50;;
19854;SDS011;10088;47.946;2.532;2023-07-16T10:12:11;6.83;;;2.60;;
19854;SDS011;10088;47.946;2.532;2023-07-16T10:14:40;7.40;;;2.77;;
19854;SDS011;10088;47.946;2.532;2023-07-16T10:17:05;6.37;;;2.67;;
19854;SDS011;10088;47.946;2.532;2023-07-16T10:19:31;6.07;;;2.80;;
19854;SDS011;10088;47.946;2.532;2023-07-16T10:21:59;9.77;;;2.10;;
19854;SDS011;10088;47.946;2.532;2023-07-16T10:24:27;5.07;;;2.20;;
19854;SDS011;10088;47.946;2.532;2023-07-16T10:26:52;7.07;;;2.60;;
19854;SDS011;10088;47.946;2.532;2023-07-16T10:29:17;6.30;;;2.40;;
19854;SDS011;10088;47.946;2.532;2023-07-16T10:31:42;9.47;;;3.30;;
19854;SDS011;10088;47.946;2.532;2023-07-16T10:34:08;6.07;;;2.87;;
19854;SDS011;10088;47.946;2.532;2023-07-16T10:36:38;7.83;;;2.80;;
19854;SDS011;10088;47.946;2.532;2023-07-16T10:39:03;6.60;;;3.10;;
19854;SDS011;10088;47.946;2.532;2023-07-16T10:41:30;5.63;;;2.90;;
19854;SDS011;10088;47.946;2.532;2023-07-16T10:43:55;9.40;;;2.90;;
19854;SDS011;10088;47.946;2.532;2023-07-16T10:46:21;4.80;;;2.83;;
19854;SDS011;10088;47.946;2.532;2023-07-16T10:48:47;8.90;;;3.43;;
19854;SDS011;10088;47.946;2.532;2023-07-16T10:51:14;8.10;;;2.63;;
19854;SDS011;10088;47.946;2.532;2023-07-16T10:53:43;5.83;;;3.23;;
19854;SDS011;10088;47.946;2.532;2023-07-16T10:56:08;6.80;;;2.67;;
19854;SDS011;10088;47.946;2.532;2023-07-16T10:58:33;7.67;;;2.93;;
19854;SDS011;10088;47.946;2.532;2023-07-16T11:00:58;6.53;;;2.63;;
19854;SDS011;10088;47.946;2.532;2023-07-16T11:03:24;3.43;;;2.60;;
19854;SDS011;10088;47.946;2.532;2023-07-16T11:05:49;7.73;;;2.87;;
19854;SDS011;10088;47.946;2.532;2023-07-16T11:08:21;5.43;;;2.90;;
19854;SDS011;10088;47.946;2.532;2023-07-16T11:10:52;5.33;;;2.53;;
19854;SDS011;10088;47.946;2.532;2023-07-16T11:13:17;5.10;;;2.37;;
19854;SDS011;10088;47.946;2.532;2023-07-16T11:15:42;6.03;;;2.43;;
19854;SDS011;10088;47.946;2.532;2023-07-16T11:18:08;5.63;;;2.47;;
19854;SDS011;10088;47.946;2.532;2023-07-16T11:20:33;4.57;;;2.33;;
19854;SDS011;10088;47.946;2.532;2023-07-16T11:22:59;6.70;;;3.37;;
19854;SDS011;10088;47.946;2.532;2023-07-16T11:25:25;3.37;;;2.63;;
19854;SDS011;10088;47.946;2.532;2023-07-16T11:27:53;7.17;;;3.20;;
19854;SDS011;10088;47.946;2.532;2023-07-16T11:30:22;5.27;;;2.73;;
19854;SDS011;10088;47.946;2.532;2023-07-16T11:32:47;7.33;;;2.87;;
19854;SDS011;10088;47.946;2.532;2023-07-16T11:35:17;5.70;;;3.17;;
19854;SDS011;10088;47.946;2.532;2023-07-16T11:37:43;7.03;;;3.00;;
19854;SDS011;10088;47.946;2.532;2023-07-16T11:40:09;9.03;;;3.10;;
19854;SDS011;10088;47.946;2.532;2023-07-16T11:42:35;6.70;;;3.00;;
19854;SDS011;10088;47.946;2.532;2023-07-16T11:45:02;5.43;;;2.90;;
19854;SDS011;10088;47.946;2.532;2023-07-16T11:47:27;6.10;;;2.93;;
19854;SDS011;10088;47.946;2.532;2023-07-16T11:49:53;6.63;;;2.73;;
19854;SDS011;10088;47.946;2.532;2023-07-16T11:52:19;6.67;;;2.80;;
19854;SDS011;10088;47.946;2.532;2023-07-16T11:54:45;8.47;;;4.67;;
19854;SDS011;10088;47.946;2.532;2023-07-16T11:57:10;5.83;;;2.97;;
19854;SDS011;10088;47.946;2.532;2023-07-16T11:59:35;7.10;;;2.80;;
19854;SDS011;10088;47.946;2.532;2023-07-16T12:02:01;5.63;;;2.60;;
19854;SDS011;10088;47.946;2.532;2023-07-16T12:04:27;6.33;;;2.90;;
19854;SDS011;10088;47.946;2.532;2023-07-16T12:06:53;5.97;;;2.93;;
19854;SDS011;10088;47.946;2.532;2023-07-16T12:09:18;8.90;;;2.87;;
19854;SDS011;10088;47.946;2.532;2023-07-16T12:11:43;4.20;;;2.50;;
19854;SDS011;10088;47.946;2.532;2023-07-16T12:14:08;5.20;;;2.63;;
19854;SDS011;10088;47.946;2.532;2023-07-16T12:16:34;4.13;;;2.40;;
19854;SDS011;10088;47.946;2.532;2023-07-16T12:18:59;6.37;;;2.33;;
19854;SDS011;10088;47.946;2.532;2023-07-16T12:21:24;4.57;;;2.40;;
19854;SDS011;10088;47.946;2.532;2023-07-16T12:23:50;6.17;;;2.50;;
19854;SDS011;10088;47.946;2.532;2023-07-16T12:26:15;5.17;;;2.27;;
19854;SDS011;10088;47.946;2.532;2023-07-16T12:28:40;4.90;;;2.63;;
19854;SDS011;10088;47.946;2.532;2023-07-16T12:31:05;5.60;;;2.40;;
19854;SDS011;10088;47.946;2.532;2023-07-16T12:33:31;7.47;;;2.37;;
19854;SDS011;10088;47.946;2.532;2023-07-16T12:35:56;7.93;;;2.30;;
19854;SDS011;10088;47.946;2.532;2023-07-16T12:38:21;4.20;;;2.10;;
19854;SDS011;10088;47.946;2.532;2023-07-16T12:40:47;6.43;;;2.53;;
19854;SDS011;10088;47.946;2.532;2023-07-16T12:43:13;5.97;;;2.30;;
19854;SDS011;10088;47.946;2.532;2023-07-16T12:45:38;4.17;;;2.00;;
19854;SDS011;10088;47.946;2.532;2023-07-16T12:48:03;3.87;;;1.80;;
19854;SDS011;10088;47.946;2.532;2023-07-16T12:50:28;3.53;;;1.93;;
19854;SDS011;10088;47.946;2.532;2023-07-16T12:52:54;3.77;;;1.80;;
19854;SDS011;10088;47.946;2.532;2023-07-16T12:55:20;3.53;;;2.37;;
19854;SDS011;10088;47.946;2.532;2023-07-16T12:57:45;3.50;;;1.90;;
19854;SDS011;10088;47.946;2.532;2023-07-16T13:00:10;4.23;;;2.00;;
19854;SDS011;10088;47.946;2.532;2023-07-16T13:02:36;3.97;;;2.00;;
19854;SDS011;10088;47.946;2.532;2023-07-16T13:05:01;6.13;;;2.10;;
19854;SDS011;10088;47.946;2.532;2023-07-16T13:07:27;5.07;;;2.20;;
19854;SDS011;10088;47.946;2.532;2023-07-16T13:09:52;5.20;;;2.17;;
19854;SDS011;10088;47.946;2.532;2023-07-16T13:12:17;5.30;;;1.90;;
19854;SDS011;10088;47.946;2.532;2023-07-16T13:14:42;7.07;;;2.50;;
19854;SDS011;10088;47.946;2.532;2023-07-16T13:17:08;3.80;;;2.03;;
19854;SDS011;10088;47.946;2.532;2023-07-16T13:19:33;9.30;;;3.10;;
19854;SDS011;10088;47.946;2.532;2023-07-16T13:21:58;5.07;;;2.10;;
19854;SDS011;10088;47.946;2.532;2023-07-16T13:24:24;6.20;;;2.07;;
19854;SDS011;10088;47.946;2.532;2023-07-16T13:26:50;6.60;;;2.40;;
19854;SDS011;10088;47.946;2.532;2023-07-16T13:29:16;5.03;;;2.17;;
19854;SDS011;10088;47.946;2.532;2023-07-16T13:31:41;6.40;;;2.20;;
19854;SDS011;10088;47.946;2.532;2023-07-16T13:34:06;4.47;;;2.20;;
19854;SDS011;10088;47.946;2.532;2023-07-16T13:36:31;5.47;;;2.27;;
19854;SDS011;10088;47.946;2.532;2023-07-16T13:38:57;4.07;;;1.93;;
19854;SDS011;10088;47.946;2.532;2023-07-16T13:41:22;3.90;;;1.90;;
19854;SDS011;10088;47.946;2.532;2023-07-16T13:43:47;5.27;;;2.33;;
19854;SDS011;10088;47.946;2.532;2023-07-16T13:46:12;3.13;;;1.90;;
19854;SDS011;10088;47.946;2.532;2023-07-16T13:48:38;3.60;;;2.10;;
19854;SDS011;10088;47.946;2.532;2023-07-16T13:51:04;6.17;;;2.07;;
19854;SDS011;10088;47.946;2.532;2023-07-16T13:53:29;3.73;;;2.17;;
19854;SDS011;10088;47.946;2.532;2023-07-16T13:55:55;3.77;;;2.40;;
19854;SDS011;10088;47.946;2.532;2023-07-16T13:58:20;4.40;;;2.17;;
19854;SDS011;10088;47.946;2.532;2023-07-16T14:00:45;4.97;;;2.00;;
19854;SDS011;10088;47.946;2.532;2023-07-16T14:03:10;4.87;;;1.80;;
19854;SDS011;10088;47.946;2.532;2023-07-16T14:05:35;4.20;;;1.70;;
19854;SDS011;10088;47.946;2.532;2023-07-16T14:08:04;6.40;;;2.33;;
19854;SDS011;10088;47.946;2.532;2023-07-16T14:10:29;3.67;;;1.87;;
19854;SDS011;10088;47.946;2.532;2023-07-16T14:12:54;7.13;;;1.63;;
19854;SDS011;10088;47.946;2.532;2023-07-16T14:15:20;4.43;;;2.20;;
19854;SDS011;10088;47.946;2.532;2023-07-16T14:17:45;3.30;;;1.60;;
19854;SDS011;10088;47.946;2.532;2023-07-16T14:20:10;4.90;;;2.13;;
19854;SDS011;10088;47.946;2.532;2023-07-16T14:22:36;5.73;;;2.13;;
19854;SDS011;10088;47.946;2.532;2023-07-16T14:25:01;5.73;;;2.37;;
19854;SDS011;10088;47.946;2.532;2023-07-16T14:27:27;4.80;;;2.20;;
19854;SDS011;10088;47.946;2.532;2023-07-16T14:29:52;3.87;;;1.80;;
19854;SDS011;10088;47.946;2.532;2023-07-16T14:32:18;4.77;;;1.93;;
19854;SDS011;10088;47.946;2.532;2023-07-16T14:34:43;3.70;;;2.17;;
19854;SDS011;10088;47.946;2.532;2023-07-16T14:37:08;5.77;;;2.37;;
19854;SDS011;10088;47.946;2.532;2023-07-16T14:39:33;7.07;;;2.07;;
19854;SDS011;10088;47.946;2.532;2023-07-16T14:41:59;3.27;;;1.90;;
19854;SDS011;10088;47.946;2.532;2023-07-16T14:44:28;4.37;;;1.67;;
19854;SDS011;10088;47.946;2.532;2023-07-16T14:46:53;4.03;;;2.00;;